sensor_id;sensor_type;location;lat;lon;timestamp;pressure;altitude;pressure_sealevel;temperature;humidity
11987;BME280;6053;51.382;6.768;2023-02-02T00:01:29;101677.13;;;8.44;100.00
11987;BME280;6053;51.382;6.768;2023-02-02T00:03:58;101672.56;;;8.72;100.00
11987;BME280;6053;51.382;6.768;2023-02-02T00:06:29;101672.75;;;8.92;100.00
11987;BME280;6053;51.382;6.768;2023-02-02T00:08:59;101678.25;;;8.35;100.00
11987;BME280;6053;51.382;6.768;2023-02-02T00:11:28;101674.81;;;8.26;100.00
11987;BME280;6053;51.382;6.768;2023-02-02T00:13:56;101678.72;;;8.53;100.00
11987;BME280;6053;51.382;6.768;2023-02-02T00:16:44;101669.16;;;8.70;100.00
11987;BME280;6053;51.382;6.768;2023-02-02T00:19:15;101667.44;;;9.19;100.00
11987;BME280;6053;51.382;6.768;2023-02-02T00:21:45;101672.91;;;8.63;100.00
11987;BME280;6053;51.382;6.768;2023-02-02T00:24:15;101668.03;;;8.07;100.00
11987;BME280;6053;51.382;6.768;2023-02-02T00:26:47;101677.03;;;8.16;100.00
11987;BME280;6053;51.382;6.768;2023-02-02T00:29:18;101676.69;;;7.74;100.00
11987;BME280;6053;51.382;6.768;2023-02-02T00:31:47;101668.88;;;8.08;100.00
11987;BME280;6053;51.382;6.768;2023-02-02T00:34:17;101671.69;;;8.14;100.00
11987;BME280;6053;51.382;6.768;2023-02-02T00:36:47;101673.59;;;8.71;100.00
11987;BME280;6053;51.382;6.768;2023-02-02T00:39:24;101672.25;;;7.88;100.00
11987;BME280;6053;51.382;6.768;2023-02-02T00:41:53;101675.75;;;8.55;100.00
11987;BME280;6053;51.382;6.768;2023-02-02T00:44:22;101679.69;;;9.16;100.00
11987;BME280;6053;51.382;6.768;2023-02-02T00:47:07;101675.56;;;8.78;100.00
11987;BME280;6053;51.382;6.768;2023-02-02T00:49:36;101669.09;;;8.64;100.00
11987;BME280;6053;51.382;6.768;2023-02-02T00:52:06;101671.13;;;8.77;100.00
11987;BME280;6053;51.382;6.768;2023-02-02T00:54:35;101675.16;;;9.02;100.00
11987;BME280;6053;51.382;6.768;2023-02-02T00:57:03;101678.53;;;9.04;100.00
11987;BME280;6053;51.382;6.768;2023-02-02T00:59:32;101675.13;;;9.65;100.00
11987;BME280;6053;51.382;6.768;2023-02-02T01:02:00;101678.84;;;9.16;100.00
11987;BME280;6053;51.382;6.768;2023-02-02T01:04:29;101684.53;;;9.77;100.00
11987;BME280;6053;51.382;6.768;2023-02-02T01:06:58;101690.88;;;8.87;100.00
11987;BME280;6053;51.382;6.768;2023-02-02T01:09:27;101690.13;;;7.99;100.00
11987;BME280;6053;51.382;6.768;2023-02-02T01:11:56;101690.31;;;8.48;100.00
11987;BME280;6053;51.382;6.768;2023-02-02T01:14:25;101690.75;;;8.73;100.00
11987;BME280;6053;51.382;6.768;2023-02-02T01:16:53;101691.34;;;9.18;100.00
11987;BME280;6053;51.382;6.768;2023-02-02T01:19:22;101694.00;;;9.33;100.00
11987;BME280;6053;51.382;6.768;2023-02-02T01:21:50;101699.22;;;9.21;100.00
11987;BME280;6053;51.382;6.768;2023-02-02T01:24:18;101690.03;;;8.86;100.00
11987;BME280;6053;51.382;6.768;2023-02-02T01:26:48;101681.50;;;9.03;100.00
11987;BME280;6053;51.382;6.768;2023-02-02T01:29:17;101680.28;;;9.40;100.00
11987;BME280;6053;51.382;6.768;2023-02-02T01:31:45;101684.00;;;8.97;100.00
11987;BME280;6053;51.382;6.768;2023-02-02T01:34:14;101681.53;;;9.37;100.00
11987;BME280;6053;51.382;6.768;2023-02-02T01:36:43;101687.41;;;9.00;100.00
11987;BME280;6053;51.382;6.768;2023-02-02T01:39:11;101700.13;;;8.58;100.00
11987;BME280;6053;51.382;6.768;2023-02-02T01:41:40;101689.41;;;8.26;100.00
11987;BME280;6053;51.382;6.768;2023-02-02T01:47:12;101694.25;;;8.82;100.00
11987;BME280;6053;51.382;6.768;2023-02-02T01:49:41;101705.13;;;8.69;100.00
11987;BME280;6053;51.382;6.768;2023-02-02T01:52:10;101693.34;;;9.31;100.00
11987;BME280;6053;51.382;6.768;2023-02-02T01:54:42;101702.56;;;9.45;100.00
11987;BME280;6053;51.382;6.768;2023-02-02T01:57:15;101707.47;;;9.50;100.00
11987;BME280;6053;51.382;6.768;2023-02-02T01:59:47;101705.63;;;8.79;100.00
11987;BME280;6053;51.382;6.768;2023-02-02T02:02:18;101709.94;;;9.73;100.00
11987;BME280;6053;51.382;6.768;2023-02-02T02:04:48;101706.69;;;8.57;100.00
11987;BME280;6053;51.382;6.768;2023-02-02T02:07:17;101709.66;;;8.40;100.00
11987;BME280;6053;51.382;6.768;2023-02-02T02:09:46;101704.19;;;8.25;100.00
11987;BME280;6053;51.382;6.768;2023-02-02T02:12:15;101700.31;;;8.99;100.00
11987;BME280;6053;51.382;6.768;2023-02-02T02:14:46;101699.81;;;9.17;100.00
11987;BME280;6053;51.382;6.768;2023-02-02T02:17:56;101700.44;;;8.91;100.00
11987;BME280;6053;51.382;6.768;2023-02-02T02:21:05;101695.72;;;8.85;100.00
11987;BME280;6053;51.382;6.768;2023-02-02T02:24:37;101687.22;;;8.80;100.00
11987;BME280;6053;51.382;6.768;2023-02-02T02:33:41;101693.41;;;9.10;100.00
11987;BME280;6053;51.382;6.768;2023-02-02T02:36:18;101689.78;;;8.81;100.00
11987;BME280;6053;51.382;6.768;2023-02-02T02:38:54;101687.47;;;8.85;100.00
11987;BME280;6053;51.382;6.768;2023-02-02T02:41:29;101694.63;;;8.79;100.00
11987;BME280;6053;51.382;6.768;2023-02-02T02:44:03;101694.56;;;8.72;100.00
11987;BME280;6053;51.382;6.768;2023-02-02T02:46:33;101682.94;;;8.98;100.00
11987;BME280;6053;51.382;6.768;2023-02-02T02:49:05;101693.44;;;9.44;100.00
11987;BME280;6053;51.382;6.768;2023-02-02T02:51:42;101695.91;;;9.33;100.00
11987;BME280;6053;51.382;6.768;2023-02-02T02:54:11;101696.09;;;9.31;100.00
11987;BME280;6053;51.382;6.768;2023-02-02T02:56:53;101694.63;;;8.58;100.00
11987;BME280;6053;51.382;6.768;2023-02-02T02:59:35;101698.09;;;8.88;100.00
11987;BME280;6053;51.382;6.768;2023-02-02T03:02:17;101701.94;;;8.14;100.00
11987;BME280;6053;51.382;6.768;2023-02-02T03:05:00;101694.81;;;8.78;100.00
11987;BME280;6053;51.382;6.768;2023-02-02T03:07:37;101699.69;;;8.76;100.00
11987;BME280;6053;51.382;6.768;2023-02-02T03:10:12;101697.91;;;8.46;100.00
11987;BME280;6053;51.382;6.768;2023-02-02T03:12:45;101693.53;;;9.02;100.00
11987;BME280;6053;51.382;6.768;2023-02-02T03:15:15;101695.13;;;9.45;100.00
11987;BME280;6053;51.382;6.768;2023-02-02T03:17:46;101700.44;;;9.12;100.00
11987;BME280;6053;51.382;6.768;2023-02-02T03:20:17;101692.25;;;8.97;100.00
11987;BME280;6053;51.382;6.768;2023-02-02T03:22:45;101687.69;;;9.11;100.00
11987;BME280;6053;51.382;6.768;2023-02-02T03:25:14;101694.97;;;9.19;100.00
11987;BME280;6053;51.382;6.768;2023-02-02T03:27:42;101688.91;;;9.02;100.00
11987;BME280;6053;51.382;6.768;2023-02-02T03:30:12;101687.69;;;8.83;100.00
11987;BME280;6053;51.382;6.768;2023-02-02T03:32:41;101696.75;;;9.05;100.00
11987;BME280;6053;51.382;6.768;2023-02-02T03:35:10;101686.97;;;8.96;100.00
11987;BME280;6053;51.382;6.768;2023-02-02T03:37:39;101696.41;;;8.29;100.00
11987;BME280;6053;51.382;6.768;2023-02-02T03:40:09;101697.97;;;8.53;100.00
11987;BME280;6053;51.382;6.768;2023-02-02T03:42:38;101699.63;;;8.33;100.00
11987;BME280;6053;51.382;6.768;2023-02-02T03:45:07;101695.06;;;8.40;100.00
11987;BME280;6053;51.382;6.768;2023-02-02T03:47:36;101691.66;;;8.38;100.00
11987;BME280;6053;51.382;6.768;2023-02-02T03:50:05;101680.25;;;9.33;100.00
11987;BME280;6053;51.382;6.768;2023-02-02T03:52:36;101692.47;;;8.74;100.00
11987;BME280;6053;51.382;6.768;2023-02-02T03:55:06;101688.03;;;9.02;100.00
11987;BME280;6053;51.382;6.768;2023-02-02T03:57:35;101693.00;;;9.41;100.00
11987;BME280;6053;51.382;6.768;2023-02-02T04:00:04;101708.31;;;9.22;100.00
11987;BME280;6053;51.382;6.768;2023-02-02T04:02:33;101704.59;;;8.59;100.00
11987;BME280;6053;51.382;6.768;2023-02-02T04:05:02;101701.13;;;8.35;100.00
11987;BME280;6053;51.382;6.768;2023-02-02T04:07:30;101704.38;;;8.60;100.00
11987;BME280;6053;51.382;6.768;2023-02-02T04:09:59;101704.69;;;8.14;100.00
11987;BME280;6053;51.382;6.768;2023-02-02T04:12:29;101708.44;;;8.64;100.00
11987;BME280;6053;51.382;6.768;2023-02-02T04:14:57;101713.88;;;9.29;100.00
11987;BME280;6053;51.382;6.768;2023-02-02T04:17:26;101711.66;;;9.39;100.00
11987;BME280;6053;51.382;6.768;2023-02-02T04:19:54;101717.72;;;9.06;100.00
11987;BME280;6053;51.382;6.768;2023-02-02T04:22:24;101716.22;;;8.39;100.00
11987;BME280;6053;51.382;6.768;2023-02-02T04:24:53;101721.31;;;8.79;100.00
11987;BME280;6053;51.382;6.768;2023-02-02T04:27:22;101720.81;;;8.96;100.00
11987;BME280;6053;51.382;6.768;2023-02-02T04:29:51;101728.06;;;8.40;100.00
11987;BME280;6053;51.382;6.768;2023-02-02T04:32:20;101727.69;;;9.35;100.00
11987;BME280;6053;51.382;6.768;2023-02-02T04:34:48;101729.00;;;9.39;100.00
11987;BME280;6053;51.382;6.768;2023-02-02T04:37:17;101729.09;;;8.96;100.00
11987;BME280;6053;51.382;6.768;2023-02-02T04:39:46;101724.56;;;8.46;100.00
11987;BME280;6053;51.382;6.768;2023-02-02T04:42:15;101721.63;;;8.33;100.00
11987;BME280;6053;51.382;6.768;2023-02-02T04:44:43;101724.88;;;8.58;100.00
11987;BME280;6053;51.382;6.768;2023-02-02T04:47:13;101723.69;;;8.31;100.00
11987;BME280;6053;51.382;6.768;2023-02-02T04:49:42;101726.06;;;8.70;100.00
11987;BME280;6053;51.382;6.768;2023-02-02T04:52:10;101724.22;;;8.98;100.00
11987;BME280;6053;51.382;6.768;2023-02-02T04:54:39;101722.88;;;8.66;100.00
11987;BME280;6053;51.382;6.768;2023-02-02T04:57:07;101735.28;;;8.11;100.00
11987;BME280;6053;51.382;6.768;2023-02-02T04:59:36;101730.06;;;8.89;100.00
11987;BME280;6053;51.382;6.768;2023-02-02T05:02:08;101732.22;;;8.36;100.00
11987;BME280;6053;51.382;6.768;2023-02-02T05:04:37;101734.28;;;8.12;100.00
11987;BME280;6053;51.382;6.768;2023-02-02T05:07:06;101734.28;;;7.97;100.00
11987;BME280;6053;51.382;6.768;2023-02-02T05:09:35;101729.88;;;8.18;100.00
11987;BME280;6053;51.382;6.768;2023-02-02T05:12:03;101733.19;;;8.43;100.00
11987;BME280;6053;51.382;6.768;2023-02-02T05:14:32;101731.06;;;8.45;100.00
11987;BME280;6053;51.382;6.768;2023-02-02T05:17:00;101728.56;;;8.86;100.00
11987;BME280;6053;51.382;6.768;2023-02-02T05:19:29;101721.41;;;8.70;100.00
11987;BME280;6053;51.382;6.768;2023-02-02T05:21:59;101719.66;;;8.84;100.00
11987;BME280;6053;51.382;6.768;2023-02-02T05:24:27;101718.13;;;9.03;100.00
11987;BME280;6053;51.382;6.768;2023-02-02T05:26:55;101713.22;;;8.77;100.00
11987;BME280;6053;51.382;6.768;2023-02-02T05:29:27;101710.63;;;8.33;100.00
11987;BME280;6053;51.382;6.768;2023-02-02T05:31:56;101715.84;;;8.27;100.00
11987;BME280;6053;51.382;6.768;2023-02-02T05:34:24;101713.88;;;8.58;100.00
11987;BME280;6053;51.382;6.768;2023-02-02T05:36:53;101722.78;;;8.60;100.00
11987;BME280;6053;51.382;6.768;2023-02-02T05:39:23;101723.03;;;7.92;100.00
11987;BME280;6053;51.382;6.768;2023-02-02T05:41:51;101729.88;;;8.33;100.00
11987;BME280;6053;51.382;6.768;2023-02-02T05:44:20;101728.09;;;8.61;100.00
11987;BME280;6053;51.382;6.768;2023-02-02T05:46:48;101736.09;;;8.78;100.00
11987;BME280;6053;51.382;6.768;2023-02-02T05:49:17;101733.19;;;8.28;100.00
11987;BME280;6053;51.382;6.768;2023-02-02T05:51:47;101733.56;;;8.40;100.00
11987;BME280;6053;51.382;6.768;2023-02-02T05:54:17;101719.78;;;8.76;100.00
11987;BME280;6053;51.382;6.768;2023-02-02T05:56:49;101727.56;;;8.36;100.00
11987;BME280;6053;51.382;6.768;2023-02-02T05:59:18;101729.66;;;8.34;100.00
11987;BME280;6053;51.382;6.768;2023-02-02T06:01:47;101743.91;;;8.38;100.00
11987;BME280;6053;51.382;6.768;2023-02-02T06:04:16;101734.78;;;8.37;100.00
11987;BME280;6053;51.382;6.768;2023-02-02T06:06:44;101747.63;;;8.88;100.00
11987;BME280;6053;51.382;6.768;2023-02-02T06:09:14;101745.03;;;8.43;100.00
11987;BME280;6053;51.382;6.768;2023-02-02T06:11:43;101741.72;;;8.91;100.00
11987;BME280;6053;51.382;6.768;2023-02-02T06:14:12;101741.19;;;8.59;100.00
11987;BME280;6053;51.382;6.768;2023-02-02T06:16:41;101737.31;;;9.18;100.00
11987;BME280;6053;51.382;6.768;2023-02-02T06:19:09;101744.63;;;8.83;100.00
11987;BME280;6053;51.382;6.768;2023-02-02T06:21:38;101743.72;;;8.39;100.00
11987;BME280;6053;51.382;6.768;2023-02-02T06:24:07;101762.97;;;8.10;100.00
11987;BME280;6053;51.382;6.768;2023-02-02T06:26:35;101757.19;;;8.19;100.00
11987;BME280;6053;51.382;6.768;2023-02-02T06:29:04;101745.50;;;8.32;100.00
11987;BME280;6053;51.382;6.768;2023-02-02T06:31:34;101749.50;;;8.30;100.00
11987;BME280;6053;51.382;6.768;2023-02-02T06:34:03;101760.44;;;8.08;100.00
11987;BME280;6053;51.382;6.768;2023-02-02T06:36:31;101766.34;;;8.78;100.00
11987;BME280;6053;51.382;6.768;2023-02-02T06:39:00;101767.06;;;9.08;100.00
11987;BME280;6053;51.382;6.768;2023-02-02T06:41:30;101756.50;;;8.47;100.00
11987;BME280;6053;51.382;6.768;2023-02-02T06:43:59;101760.09;;;8.47;100.00
11987;BME280;6053;51.382;6.768;2023-02-02T06:46:27;101772.16;;;8.46;100.00
11987;BME280;6053;51.382;6.768;2023-02-02T06:48:57;101778.88;;;8.29;100.00
11987;BME280;6053;51.382;6.768;2023-02-02T06:51:26;101770.66;;;7.99;100.00
11987;BME280;6053;51.382;6.768;2023-02-02T06:53:54;101772.63;;;8.20;100.00
11987;BME280;6053;51.382;6.768;2023-02-02T06:56:25;101782.44;;;8.08;100.00
11987;BME280;6053;51.382;6.768;2023-02-02T06:58:54;101775.88;;;7.65;100.00
11987;BME280;6053;51.382;6.768;2023-02-02T07:01:22;101781.16;;;8.40;100.00
11987;BME280;6053;51.382;6.768;2023-02-02T07:03:51;101782.56;;;8.21;100.00
11987;BME280;6053;51.382;6.768;2023-02-02T07:06:22;101778.78;;;8.52;100.00
11987;BME280;6053;51.382;6.768;2023-02-02T07:08:51;101786.66;;;8.77;100.00
11987;BME280;6053;51.382;6.768;2023-02-02T07:11:30;101779.81;;;8.51;100.00
11987;BME280;6053;51.382;6.768;2023-02-02T07:14:04;101779.81;;;8.36;100.00
11987;BME280;6053;51.382;6.768;2023-02-02T07:16:33;101775.66;;;8.55;100.00
11987;BME280;6053;51.382;6.768;2023-02-02T07:19:02;101784.94;;;8.24;100.00
11987;BME280;6053;51.382;6.768;2023-02-02T07:21:32;101781.00;;;8.12;100.00
11987;BME280;6053;51.382;6.768;2023-02-02T07:24:03;101783.91;;;8.11;100.00
11987;BME280;6053;51.382;6.768;2023-02-02T07:26:34;101782.41;;;7.93;100.00
11987;BME280;6053;51.382;6.768;2023-02-02T07:29:03;101784.88;;;8.03;100.00
11987;BME280;6053;51.382;6.768;2023-02-02T07:31:32;101787.59;;;8.33;100.00
11987;BME280;6053;51.382;6.768;2023-02-02T07:34:03;101795.38;;;8.44;100.00
11987;BME280;6053;51.382;6.768;2023-02-02T07:36:33;101801.19;;;8.70;100.00
11987;BME280;6053;51.382;6.768;2023-02-02T07:39:03;101798.19;;;8.50;100.00
11987;BME280;6053;51.382;6.768;2023-02-02T07:41:34;101796.44;;;8.43;100.00
11987;BME280;6053;51.382;6.768;2023-02-02T07:44:03;101803.50;;;8.88;100.00
11987;BME280;6053;51.382;6.768;2023-02-02T07:46:33;101802.09;;;8.26;100.00
11987;BME280;6053;51.382;6.768;2023-02-02T07:49:02;101801.00;;;8.72;100.00
11987;BME280;6053;51.382;6.768;2023-02-02T07:51:33;101794.16;;;8.68;100.00
11987;BME280;6053;51.382;6.768;2023-02-02T07:54:05;101801.84;;;8.72;100.00
11987;BME280;6053;51.382;6.768;2023-02-02T07:56:34;101805.06;;;8.25;100.00
11987;BME280;6053;51.382;6.768;2023-02-02T07:59:04;101798.44;;;8.92;100.00
11987;BME280;6053;51.382;6.768;2023-02-02T08:01:33;101801.06;;;8.13;100.00
11987;BME280;6053;51.382;6.768;2023-02-02T08:04:01;101811.31;;;8.04;100.00
11987;BME280;6053;51.382;6.768;2023-02-02T08:06:33;101808.44;;;8.93;100.00
11987;BME280;6053;51.382;6.768;2023-02-02T08:09:03;101819.47;;;8.42;100.00
11987;BME280;6053;51.382;6.768;2023-02-02T08:11:32;101814.91;;;8.85;100.00
11987;BME280;6053;51.382;6.768;2023-02-02T08:14:01;101820.19;;;8.65;100.00
11987;BME280;6053;51.382;6.768;2023-02-02T08:16:31;101827.69;;;7.83;100.00
11987;BME280;6053;51.382;6.768;2023-02-02T08:19:00;101811.50;;;8.47;100.00
11987;BME280;6053;51.382;6.768;2023-02-02T08:21:31;101822.47;;;9.19;100.00
11987;BME280;6053;51.382;6.768;2023-02-02T08:24:01;101828.34;;;8.14;100.00
11987;BME280;6053;51.382;6.768;2023-02-02T08:26:31;101830.66;;;8.40;100.00
11987;BME280;6053;51.382;6.768;2023-02-02T08:29:01;101835.84;;;9.23;100.00
11987;BME280;6053;51.382;6.768;2023-02-02T08:31:32;101834.53;;;8.46;100.00
11987;BME280;6053;51.382;6.768;2023-02-02T08:34:02;101844.97;;;8.06;100.00
11987;BME280;6053;51.382;6.768;2023-02-02T08:36:31;101837.47;;;8.30;100.00
11987;BME280;6053;51.382;6.768;2023-02-02T08:39:04;101842.03;;;8.88;100.00
11987;BME280;6053;51.382;6.768;2023-02-02T08:41:32;101841.56;;;8.85;100.00
11987;BME280;6053;51.382;6.768;2023-02-02T08:44:05;101842.78;;;8.46;100.00
11987;BME280;6053;51.382;6.768;2023-02-02T08:46:37;101846.09;;;8.26;100.00
11987;BME280;6053;51.382;6.768;2023-02-02T08:49:06;101849.16;;;7.64;100.00
11987;BME280;6053;51.382;6.768;2023-02-02T08:51:34;101856.59;;;7.93;100.00
11987;BME280;6053;51.382;6.768;2023-02-02T08:54:04;101853.84;;;7.78;100.00
11987;BME280;6053;51.382;6.768;2023-02-02T08:56:33;101854.78;;;8.00;100.00
11987;BME280;6053;51.382;6.768;2023-02-02T08:59:01;101865.69;;;7.79;100.00
11987;BME280;6053;51.382;6.768;2023-02-02T09:01:32;101860.59;;;7.53;100.00
11987;BME280;6053;51.382;6.768;2023-02-02T09:04:03;101864.09;;;8.14;100.00
11987;BME280;6053;51.382;6.768;2023-02-02T09:06:33;101869.03;;;8.63;100.00
11987;BME280;6053;51.382;6.768;2023-02-02T09:09:04;101875.88;;;8.08;100.00
11987;BME280;6053;51.382;6.768;2023-02-02T09:11:33;101882.53;;;7.91;100.00
11987;BME280;6053;51.382;6.768;2023-02-02T09:14:02;101886.91;;;8.00;100.00
11987;BME280;6053;51.382;6.768;2023-02-02T09:16:33;101888.94;;;8.21;100.00
11987;BME280;6053;51.382;6.768;2023-02-02T09:19:02;101893.59;;;9.16;100.00
11987;BME280;6053;51.382;6.768;2023-02-02T09:21:31;101902.38;;;8.31;100.00
11987;BME280;6053;51.382;6.768;2023-02-02T09:24:07;101901.53;;;8.30;100.00
11987;BME280;6053;51.382;6.768;2023-02-02T09:26:36;101908.22;;;8.65;100.00
11987;BME280;6053;51.382;6.768;2023-02-02T09:29:09;101909.00;;;7.92;100.00
11987;BME280;6053;51.382;6.768;2023-02-02T09:31:38;101903.63;;;7.98;100.00
11987;BME280;6053;51.382;6.768;2023-02-02T09:34:09;101910.91;;;8.21;100.00
11987;BME280;6053;51.382;6.768;2023-02-02T09:36:39;101928.03;;;8.61;100.00
11987;BME280;6053;51.382;6.768;2023-02-02T09:39:10;101922.06;;;8.57;100.00
11987;BME280;6053;51.382;6.768;2023-02-02T09:45:03;101942.19;;;8.20;100.00
11987;BME280;6053;51.382;6.768;2023-02-02T09:47:53;101939.97;;;8.83;100.00
11987;BME280;6053;51.382;6.768;2023-02-02T09:50:41;101953.63;;;8.46;100.00
11987;BME280;6053;51.382;6.768;2023-02-02T09:53:17;101957.72;;;8.65;100.00
11987;BME280;6053;51.382;6.768;2023-02-02T09:55:51;101959.78;;;8.78;100.00
11987;BME280;6053;51.382;6.768;2023-02-02T09:58:24;101972.34;;;8.28;100.00
11987;BME280;6053;51.382;6.768;2023-02-02T10:00:58;101970.03;;;8.40;100.00
11987;BME280;6053;51.382;6.768;2023-02-02T10:03:35;101965.97;;;8.13;100.00
11987;BME280;6053;51.382;6.768;2023-02-02T10:06:14;101976.69;;;8.60;100.00
11987;BME280;6053;51.382;6.768;2023-02-02T10:08:49;101978.47;;;7.77;100.00
11987;BME280;6053;51.382;6.768;2023-02-02T10:11:29;101970.31;;;8.07;100.00
11987;BME280;6053;51.382;6.768;2023-02-02T10:14:01;101967.19;;;7.95;100.00
11987;BME280;6053;51.382;6.768;2023-02-02T10:16:33;101973.03;;;8.30;100.00
11987;BME280;6053;51.382;6.768;2023-02-02T10:19:04;101969.16;;;8.98;100.00
11987;BME280;6053;51.382;6.768;2023-02-02T10:21:37;101986.53;;;8.99;100.00
11987;BME280;6053;51.382;6.768;2023-02-02T10:24:15;101992.81;;;8.63;100.00
11987;BME280;6053;51.382;6.768;2023-02-02T10:26:48;102002.06;;;7.95;100.00
11987;BME280;6053;51.382;6.768;2023-02-02T10:29:29;101994.28;;;7.98;100.00
11987;BME280;6053;51.382;6.768;2023-02-02T10:32:19;101993.34;;;8.44;100.00
11987;BME280;6053;51.382;6.768;2023-02-02T10:35:02;101990.66;;;8.59;100.00
11987;BME280;6053;51.382;6.768;2023-02-02T10:37:44;101996.78;;;8.61;100.00
11987;BME280;6053;51.382;6.768;2023-02-02T10:40:23;101993.19;;;8.90;100.00
11987;BME280;6053;51.382;6.768;2023-02-02T10:43:17;101997.19;;;9.02;100.00
11987;BME280;6053;51.382;6.768;2023-02-02T10:46:14;101989.38;;;8.91;100.00
11987;BME280;6053;51.382;6.768;2023-02-02T10:48:46;101999.06;;;8.57;100.00
11987;BME280;6053;51.382;6.768;2023-02-02T10:51:20;101999.56;;;8.76;100.00
11987;BME280;6053;51.382;6.768;2023-02-02T10:53:52;102003.06;;;8.99;100.00
11987;BME280;6053;51.382;6.768;2023-02-02T10:56:25;102005.63;;;8.71;100.00
11987;BME280;6053;51.382;6.768;2023-02-02T10:59:02;101997.34;;;8.71;100.00
11987;BME280;6053;51.382;6.768;2023-02-02T11:01:33;102004.00;;;8.91;100.00
11987;BME280;6053;51.382;6.768;2023-02-02T11:04:01;102001.53;;;8.96;100.00
11987;BME280;6053;51.382;6.768;2023-02-02T11:06:47;102006.53;;;9.08;100.00
11987;BME280;6053;51.382;6.768;2023-02-02T11:09:21;102009.50;;;8.47;100.00
11987;BME280;6053;51.382;6.768;2023-02-02T11:11:53;102011.53;;;8.07;100.00
11987;BME280;6053;51.382;6.768;2023-02-02T11:14:33;102015.41;;;8.36;100.00
11987;BME280;6053;51.382;6.768;2023-02-02T11:17:18;102015.22;;;8.90;100.00
11987;BME280;6053;51.382;6.768;2023-02-02T11:19:48;102015.50;;;8.80;100.00
11987;BME280;6053;51.382;6.768;2023-02-02T11:22:25;102008.41;;;9.37;100.00
11987;BME280;6053;51.382;6.768;2023-02-02T11:24:56;102017.00;;;9.12;100.00
11987;BME280;6053;51.382;6.768;2023-02-02T11:27:31;102016.03;;;8.61;100.00
11987;BME280;6053;51.382;6.768;2023-02-02T11:30:11;102028.69;;;9.00;100.00
11987;BME280;6053;51.382;6.768;2023-02-02T11:32:40;102028.19;;;8.66;100.00
11987;BME280;6053;51.382;6.768;2023-02-02T11:35:20;102022.66;;;8.52;100.00
11987;BME280;6053;51.382;6.768;2023-02-02T11:37:58;102014.44;;;8.96;100.00
11987;BME280;6053;51.382;6.768;2023-02-02T11:40:34;102010.31;;;9.21;100.00
11987;BME280;6053;51.382;6.768;2023-02-02T11:43:13;102007.94;;;9.18;100.00
11987;BME280;6053;51.382;6.768;2023-02-02T11:45:45;101999.78;;;9.25;100.00
11987;BME280;6053;51.382;6.768;2023-02-02T11:48:18;102000.38;;;8.91;100.00
11987;BME280;6053;51.382;6.768;2023-02-02T11:50:49;102003.75;;;9.37;100.00
11987;BME280;6053;51.382;6.768;2023-02-02T11:53:22;101998.78;;;8.52;100.00
11987;BME280;6053;51.382;6.768;2023-02-02T11:55:53;101997.81;;;9.19;100.00
11987;BME280;6053;51.382;6.768;2023-02-02T11:58:24;102002.53;;;9.25;100.00
11987;BME280;6053;51.382;6.768;2023-02-02T12:00:59;101997.63;;;9.42;100.00
11987;BME280;6053;51.382;6.768;2023-02-02T12:03:33;101996.16;;;9.82;100.00
11987;BME280;6053;51.382;6.768;2023-02-02T12:06:18;102008.56;;;9.50;100.00
11987;BME280;6053;51.382;6.768;2023-02-02T12:08:47;102000.91;;;9.88;100.00
11987;BME280;6053;51.382;6.768;2023-02-02T12:11:27;102001.03;;;9.08;100.00
11987;BME280;6053;51.382;6.768;2023-02-02T12:14:08;101995.22;;;9.32;100.00
11987;BME280;6053;51.382;6.768;2023-02-02T12:16:50;102007.47;;;9.66;100.00
11987;BME280;6053;51.382;6.768;2023-02-02T12:19:36;102007.81;;;9.41;100.00
11987;BME280;6053;51.382;6.768;2023-02-02T12:22:18;102006.19;;;8.96;100.00
11987;BME280;6053;51.382;6.768;2023-02-02T12:24:54;102006.16;;;9.11;100.00
11987;BME280;6053;51.382;6.768;2023-02-02T12:27:32;102001.34;;;9.49;100.00
11987;BME280;6053;51.382;6.768;2023-02-02T12:30:26;102003.22;;;9.49;100.00
11987;BME280;6053;51.382;6.768;2023-02-02T12:33:09;102003.44;;;9.68;100.00
11987;BME280;6053;51.382;6.768;2023-02-02T12:35:59;102005.03;;;9.78;100.00
11987;BME280;6053;51.382;6.768;2023-02-02T12:38:45;101996.00;;;9.11;100.00
11987;BME280;6053;51.382;6.768;2023-02-02T12:41:34;102003.72;;;9.01;100.00
11987;BME280;6053;51.382;6.768;2023-02-02T12:44:13;102007.41;;;9.08;100.00
11987;BME280;6053;51.382;6.768;2023-02-02T12:46:58;102003.78;;;9.23;100.00
11987;BME280;6053;51.382;6.768;2023-02-02T12:49:58;102002.78;;;8.79;100.00
11987;BME280;6053;51.382;6.768;2023-02-02T12:52:44;102002.50;;;9.40;100.00
11987;BME280;6053;51.382;6.768;2023-02-02T12:55:22;101993.53;;;9.16;100.00
11987;BME280;6053;51.382;6.768;2023-02-02T12:58:04;102004.56;;;8.42;100.00
11987;BME280;6053;51.382;6.768;2023-02-02T13:00:46;101996.59;;;8.47;100.00
11987;BME280;6053;51.382;6.768;2023-02-02T13:03:30;101994.88;;;8.46;100.00
11987;BME280;6053;51.382;6.768;2023-02-02T13:06:21;101993.75;;;9.00;100.00
11987;BME280;6053;51.382;6.768;2023-02-02T13:08:56;101985.19;;;9.10;100.00
11987;BME280;6053;51.382;6.768;2023-02-02T13:11:34;101995.78;;;9.64;100.00
11987;BME280;6053;51.382;6.768;2023-02-02T13:14:08;102004.41;;;9.39;100.00
11987;BME280;6053;51.382;6.768;2023-02-02T13:16:42;102007.22;;;9.10;100.00
11987;BME280;6053;51.382;6.768;2023-02-02T13:19:20;102003.53;;;8.88;100.00
11987;BME280;6053;51.382;6.768;2023-02-02T13:21:57;102004.28;;;8.96;100.00
11987;BME280;6053;51.382;6.768;2023-02-02T13:24:30;102005.59;;;9.15;100.00
11987;BME280;6053;51.382;6.768;2023-02-02T13:27:01;102004.97;;;9.50;100.00
11987;BME280;6053;51.382;6.768;2023-02-02T13:29:36;102007.72;;;9.50;100.00
11987;BME280;6053;51.382;6.768;2023-02-02T13:32:18;102013.78;;;9.45;100.00
11987;BME280;6053;51.382;6.768;2023-02-02T13:34:51;102005.50;;;8.64;100.00
11987;BME280;6053;51.382;6.768;2023-02-02T13:37:27;102014.28;;;9.34;100.00
11987;BME280;6053;51.382;6.768;2023-02-02T13:40:00;102015.28;;;8.82;100.00
11987;BME280;6053;51.382;6.768;2023-02-02T13:42:36;102016.53;;;8.94;100.00